»·PEaware :: N5002T KBUR-KBUR

N5002T :: KBUR-KBUR

FLIGHT INFORMATION

Flight Status: Arrived
Operator: Privately registered:
United States
More flights under this callsign
Pilot: Hunter M. (19355)
Aircraft: CESSNA 172 SKYHAWK
(C172)
More flights by this aircraft type
Origin: KBUR Bob Hope-Burbank
United States
Destination: KBUR Bob Hope-Burbank
United States
More flights between these airports :: More routes between these airports
Route: +SILEX
File this flight plan on PilotEdge
Remarks: practice rnav gps z rwy 8 full approach from VTU
Altitude:
(Current/Filed)
5,000ft
Speed:
(Current/Filed)
115kts
Departed: 20-Nov-18 11:30 AM
Arrived: 20-Nov-18 12:30 PM
Distance/Time
Traveled:
0nm/0:59
Distance/Time
To Go:
Arrived

Flight Plot

Page will automatically refresh every two minutes.


Map Options




Map Legend


Flown Route
Filed Route
Departure Airport
Arrival Airport
Navaid (VOR, NDB)
Fix

Horizontal Profiles

Position Reports

Time Latitude Longitude Heading Altitude Ground
Speed
20-Nov-18 11:20 34.195985 -118.366738 30 781ft 0kts
20-Nov-18 11:21 34.195986 -118.366737 30 781ft 0kts
20-Nov-18 11:22 34.195986 -118.366737 30 781ft 0kts
20-Nov-18 11:23 34.195987 -118.366736 30 781ft 0kts
20-Nov-18 11:24 34.195988 -118.366736 30 781ft 0kts
20-Nov-18 11:25 34.195988 -118.366735 31 781ft 0kts
20-Nov-18 11:26 34.195989 -118.366735 31 781ft 0kts
20-Nov-18 11:27 34.195990 -118.366734 31 781ft 0kts
20-Nov-18 11:28 34.196374 -118.366252 41 781ft 3kts
20-Nov-18 11:29 34.196715 -118.367466 271 781ft 6kts
20-Nov-18 11:30 34.197113 -118.368988 356 781ft 0kts
20-Nov-18 11:31 34.197114 -118.368988 356 781ft 0kts
20-Nov-18 11:32 34.197916 -118.368673 84 781ft 0kts
20-Nov-18 11:33 34.198394 -118.351554 100 1079ft 82kts
20-Nov-18 11:34 34.186279 -118.327741 121 1835ft 86kts
20-Nov-18 11:35 34.176455 -118.306224 121 2410ft 90kts
20-Nov-18 11:36 34.160356 -118.274689 156 3202ft 97kts
20-Nov-18 11:37 34.153217 -118.296238 270 3916ft 80kts
20-Nov-18 11:38 34.152334 -118.326013 270 4002ft 91kts
20-Nov-18 11:39 34.151555 -118.354595 270 4031ft 119kts
20-Nov-18 11:40 34.150372 -118.390337 270 3982ft 74kts
20-Nov-18 11:41 34.148531 -118.410718 267 4000ft 72kts
20-Nov-18 11:42 34.133030 -118.433604 228 4001ft 78kts
20-Nov-18 11:43 34.126909 -118.451808 271 4006ft 72kts
20-Nov-18 11:44 34.123405 -118.479274 260 4014ft 91kts
20-Nov-18 11:45 34.115822 -118.509029 253 4006ft 93kts
20-Nov-18 11:46 34.107871 -118.538437 263 4011ft 91kts
20-Nov-18 11:47 34.104901 -118.568865 270 4010ft 90kts
20-Nov-18 11:48 34.105690 -118.598639 263 4000ft 94kts
20-Nov-18 11:49 34.100995 -118.629034 267 4014ft 90kts
20-Nov-18 11:50 34.100642 -118.659218 276 4017ft 90kts
20-Nov-18 11:51 34.103629 -118.689164 280 4012ft 90kts
20-Nov-18 11:52 34.106412 -118.719077 276 4014ft 89kts
20-Nov-18 11:53 34.107641 -118.749280 274 4017ft 90kts
20-Nov-18 11:54 34.107709 -118.779640 272 4017ft 90kts
20-Nov-18 11:55 34.107745 -118.809972 274 4011ft 90kts
20-Nov-18 11:56 34.108794 -118.840221 275 4009ft 90kts
20-Nov-18 11:57 34.109956 -118.870353 274 4009ft 90kts
20-Nov-18 11:58 34.110737 -118.900552 274 4009ft 90kts
20-Nov-18 11:59 34.111581 -118.930782 274 4009ft 90kts
20-Nov-18 12:00 34.112459 -118.960956 274 4013ft 90kts
20-Nov-18 12:01 34.113364 -118.991214 274 4013ft 90kts
20-Nov-18 12:02 34.114244 -119.021495 274 4013ft 90kts
20-Nov-18 12:03 34.115117 -119.051770 274 4012ft 90kts
20-Nov-18 12:04 34.111216 -119.081732 259 4011ft 91kts
20-Nov-18 12:05 34.105192 -119.111440 259 4009ft 91kts
20-Nov-18 12:06 34.098962 -119.141118 259 4012ft 91kts
20-Nov-18 12:07 34.092419 -119.170917 259 4013ft 92kts
20-Nov-18 12:08 34.100432 -119.188454 58 4012ft 98kts
20-Nov-18 12:09 34.104916 -119.155448 77 4507ft 99kts
20-Nov-18 12:10 34.109202 -119.120255 77 4611ft 108kts
20-Nov-18 12:11 34.113665 -119.084239 77 4609ft 108kts
20-Nov-18 12:12 34.118925 -119.048605 63 4613ft 106kts
20-Nov-18 12:13 34.124547 -119.013608 82 4617ft 108kts
20-Nov-18 12:14 34.133317 -118.979444 63 4611ft 106kts
20-Nov-18 12:15 34.144223 -118.946298 64 4611ft 106kts
20-Nov-18 12:16 34.154982 -118.913050 64 4609ft 106kts
20-Nov-18 12:17 34.165758 -118.879747 64 4609ft 106kts
20-Nov-18 12:18 34.176534 -118.846413 64 4609ft 106kts
20-Nov-18 12:19 34.187305 -118.813050 64 4613ft 106kts
20-Nov-18 12:20 34.198033 -118.779798 64 4613ft 106kts
20-Nov-18 12:21 34.198483 -118.742939 88 4216ft 112kts
20-Nov-18 12:22 34.198013 -118.707248 87 4104ft 100kts
20-Nov-18 12:23 34.197737 -118.673698 87 4112ft 99kts
20-Nov-18 12:24 34.197395 -118.641509 87 4112ft 99kts
20-Nov-18 12:25 34.197067 -118.608020 84 4109ft 99kts
20-Nov-18 12:26 34.199343 -118.573315 88 3814ft 108kts
20-Nov-18 12:27 34.198826 -118.536478 88 3315ft 110kts
20-Nov-18 12:28 34.198325 -118.499936 88 2982ft 102kts
20-Nov-18 12:29 34.197939 -118.466372 88 2859ft 106kts
20-Nov-18 12:30 34.198754 -118.432120 84 2330ft 91kts
20-Nov-18 12:31 34.198146 -118.402609 91 1507ft 72kts
20-Nov-18 12:32 34.198066 -118.379061 89 1017ft 63kts
20-Nov-18 12:33 34.197814 -118.362398 94 781ft 10kts
20-Nov-18 12:34 34.197039 -118.360274 180 781ft 0kts
20-Nov-18 12:35 34.197036 -118.360274 180 781ft 0kts
20-Nov-18 12:36 34.196163 -118.362747 180 781ft 9kts

Navigation Log

Ident Type
Flight plan parsing failed, navigation log unavailable